Memphis, MO (63555)

4:15 AM CDT on June 23, 2017 (GMT -0500)
Kirksville Regional | | Change Station

Elev 965 ft 40.09 °N, 92.54 °W | Updated 9 minutes ago

Thunderstorm
Thunderstorm
69 °F
Feels Like 69 °F
N
17
Wind Variable Wind from NW
Gusts 29 mph

Today
High -- | Low -- °F
--% Chance of Precip.
Yesterday
High -- | Low -- °F
Precip. -- in
Pressure 29.75 in
Visibility 2.0 miles
Clouds Mostly Cloudy 3000 ft
Mostly Cloudy 3500 ft
Overcast 5500 ft
Dew Point 67 °F
Humidity 93%
Rainfall 0.06 in
Snow Depth Not available.
5:39 AM 8:42 PM
Waning Crescent, 1% visible
SPECI KIRK 230906Z AUTO 32015G25KT 2SM VCTS +RA BR BKN030 BKN035 OVC055 21/19 A2975 RMK AO2 LTG DSNT W-NE P0016 T02060194
Pressure 29.75 in
Visibility 2.0 miles
Clouds Mostly Cloudy 3000 ft
Mostly Cloudy 3500 ft
Overcast 5500 ft
Dew Point 67 °F
Humidity 93%
Rainfall 0.06 in
Snow Depth Not available.
5:39 AM 8:42 PM
Waning Crescent, 1% visible
SPECI KIRK 230906Z AUTO 32015G25KT 2SM VCTS +RA BR BKN030 BKN035 OVC055 21/19 A2975 RMK AO2 LTG DSNT W-NE P0016 T02060194

Get Severe Weather Alerts

Thanks for signing up!

Be on the lookout for a verification email in your inbox.

You'll start receiving the daily forecast at 6 AM.

×

10-Day Weather Forecast

Almanac

Astronomy

Jun. 23, 2017 Rise Set
Actual Time
Civil Twilight
Nautical Twilight
Astronomical Twilight
Moon
Length of Visible Light
Length of Day
Tomorrow will be .
, % of the Moon is Illuminated

Today's Extremes

State Highs State Lows

Community

WunderPhotos

Category 6

Welcome to Category 6. This is the collective home for Weather Underground's featured writeups by Dr. Jeff Masters (right), Bob Henson (left), Chris Burt, and other regular contributors.

Nearby

Air Quality

  Air Quality AQ Index Pollutant
Not available.

Snow Depth

Station Depth Elevation

Earthquake Activity

City Distance Mag. Time & Date
Minimum magnitude displayed is 2.5.

Coastal Water Temperatures

Place Temperature

Stations

Nearby Weather Stations

Station Location Temp. Windchill Dew Point Humidity Wind Precip. Elev Updated Type
                   

Watches & Warnings

There are currently no watches in effect.